sensor_id;sensor_type;location;lat;lon;timestamp;pressure;altitude;pressure_sealevel;temperature;humidity
41254;BME280;26987;59.928;30.306;2023-05-08T00:01:38;102919.72;;;3.54;57.64
41254;BME280;26987;59.928;30.306;2023-05-08T00:04:05;102929.69;;;3.50;57.97
41254;BME280;26987;59.928;30.306;2023-05-08T00:06:33;102930.53;;;3.51;58.16
41254;BME280;26987;59.928;30.306;2023-05-08T00:09:01;102929.91;;;3.47;58.02
41254;BME280;26987;59.928;30.306;2023-05-08T00:11:30;102920.06;;;3.49;57.94
41254;BME280;26987;59.928;30.306;2023-05-08T00:13:58;102926.50;;;3.45;58.45
41254;BME280;26987;59.928;30.306;2023-05-08T00:16:26;102926.72;;;3.42;58.91
41254;BME280;26987;59.928;30.306;2023-05-08T00:18:54;102929.56;;;3.39;59.19
41254;BME280;26987;59.928;30.306;2023-05-08T00:21:22;102930.75;;;3.35;59.19
41254;BME280;26987;59.928;30.306;2023-05-08T00:23:50;102927.16;;;3.36;59.42
41254;BME280;26987;59.928;30.306;2023-05-08T00:26:18;102934.56;;;3.31;59.26
41254;BME280;26987;59.928;30.306;2023-05-08T00:28:47;102935.22;;;3.34;59.03
41254;BME280;26987;59.928;30.306;2023-05-08T00:31:15;102931.34;;;3.25;58.70
41254;BME280;26987;59.928;30.306;2023-05-08T00:33:43;102940.06;;;3.27;58.89
41254;BME280;26987;59.928;30.306;2023-05-08T00:36:11;102941.75;;;3.28;58.94
41254;BME280;26987;59.928;30.306;2023-05-08T00:38:41;102941.66;;;3.30;57.87
41254;BME280;26987;59.928;30.306;2023-05-08T00:41:08;102934.56;;;3.31;57.76
41254;BME280;26987;59.928;30.306;2023-05-08T00:43:37;102935.41;;;3.31;57.65
41254;BME280;26987;59.928;30.306;2023-05-08T00:46:06;102932.66;;;3.33;56.07
41254;BME280;26987;59.928;30.306;2023-05-08T00:48:37;102928.41;;;3.30;55.78
41254;BME280;26987;59.928;30.306;2023-05-08T00:51:07;102950.78;;;3.39;56.27
41254;BME280;26987;59.928;30.306;2023-05-08T00:53:38;102944.56;;;3.40;55.54
41254;BME280;26987;59.928;30.306;2023-05-08T00:56:09;102941.78;;;3.42;55.20
41254;BME280;26987;59.928;30.306;2023-05-08T00:58:38;102943.47;;;3.43;54.46
41254;BME280;26987;59.928;30.306;2023-05-08T01:01:09;102942.41;;;3.45;54.41
41254;BME280;26987;59.928;30.306;2023-05-08T01:03:37;102933.94;;;3.40;53.98
41254;BME280;26987;59.928;30.306;2023-05-08T01:06:07;102952.81;;;3.48;54.70
41254;BME280;26987;59.928;30.306;2023-05-08T01:08:35;102945.72;;;3.49;53.88
41254;BME280;26987;59.928;30.306;2023-05-08T01:11:10;102940.31;;;3.50;54.64
41254;BME280;26987;59.928;30.306;2023-05-08T01:13:49;102939.25;;;3.53;54.77
41254;BME280;26987;59.928;30.306;2023-05-08T01:16:25;102950.72;;;3.53;55.39
41254;BME280;26987;59.928;30.306;2023-05-08T01:19:01;102946.13;;;3.56;55.38
41254;BME280;26987;59.928;30.306;2023-05-08T01:21:36;102943.94;;;3.49;55.08
41254;BME280;26987;59.928;30.306;2023-05-08T01:24:25;102935.22;;;3.47;54.94
41254;BME280;26987;59.928;30.306;2023-05-08T01:33:24;102917.47;;;3.35;56.26
41254;BME280;26987;59.928;30.306;2023-05-08T01:35:57;102946.22;;;3.54;56.34
41254;BME280;26987;59.928;30.306;2023-05-08T01:38:31;102950.72;;;3.53;55.76
41254;BME280;26987;59.928;30.306;2023-05-08T01:41:06;102944.25;;;3.45;57.04
41254;BME280;26987;59.928;30.306;2023-05-08T01:43:43;102951.75;;;3.51;56.60
41254;BME280;26987;59.928;30.306;2023-05-08T01:46:23;102955.16;;;3.53;57.11
41254;BME280;26987;59.928;30.306;2023-05-08T01:48:59;102956.84;;;3.54;57.13
41254;BME280;26987;59.928;30.306;2023-05-08T01:51:36;102948.16;;;3.52;57.89
41254;BME280;26987;59.928;30.306;2023-05-08T01:54:10;102946.69;;;3.61;57.66
41254;BME280;26987;59.928;30.306;2023-05-08T01:56:42;102956.00;;;3.66;58.92
41254;BME280;26987;59.928;30.306;2023-05-08T01:59:12;102953.91;;;3.72;58.10
41254;BME280;26987;59.928;30.306;2023-05-08T02:01:43;102958.03;;;3.76;58.67
41254;BME280;26987;59.928;30.306;2023-05-08T02:04:16;102945.28;;;3.81;58.73
41254;BME280;26987;59.928;30.306;2023-05-08T02:06:44;102941.16;;;3.77;58.41
41254;BME280;26987;59.928;30.306;2023-05-08T02:09:12;102957.47;;;3.97;58.60
41254;BME280;26987;59.928;30.306;2023-05-08T02:11:43;102962.88;;;4.08;58.66
41254;BME280;26987;59.928;30.306;2023-05-08T02:14:18;102954.03;;;4.21;58.85
41254;BME280;26987;59.928;30.306;2023-05-08T02:16:47;102958.91;;;4.27;58.37
41254;BME280;26987;59.928;30.306;2023-05-08T02:19:21;102963.13;;;4.43;58.61
41254;BME280;26987;59.928;30.306;2023-05-08T02:21:51;102960.84;;;4.62;57.75
41254;BME280;26987;59.928;30.306;2023-05-08T02:24:20;102961.38;;;4.79;57.50
41254;BME280;26987;59.928;30.306;2023-05-08T02:26:49;102965.84;;;5.03;57.05
41254;BME280;26987;59.928;30.306;2023-05-08T02:29:18;102960.25;;;5.30;56.19
41254;BME280;26987;59.928;30.306;2023-05-08T02:31:48;102966.22;;;5.57;55.39
41254;BME280;26987;59.928;30.306;2023-05-08T02:34:19;102963.00;;;5.76;54.46
41254;BME280;26987;59.928;30.306;2023-05-08T02:36:49;102966.72;;;5.97;53.51
41254;BME280;26987;59.928;30.306;2023-05-08T02:39:19;102965.06;;;6.18;52.93
41254;BME280;26987;59.928;30.306;2023-05-08T02:41:56;102969.97;;;6.58;51.10
41254;BME280;26987;59.928;30.306;2023-05-08T02:44:24;102962.44;;;7.17;49.21
41254;BME280;26987;59.928;30.306;2023-05-08T02:46:56;102967.47;;;7.84;47.81
41254;BME280;26987;59.928;30.306;2023-05-08T02:49:32;102968.16;;;8.68;45.37
41254;BME280;26987;59.928;30.306;2023-05-08T02:52:12;102957.13;;;9.41;43.67
41254;BME280;26987;59.928;30.306;2023-05-08T02:54:43;102972.97;;;10.00;41.13
41254;BME280;26987;59.928;30.306;2023-05-08T02:57:22;102975.22;;;10.79;40.57
41254;BME280;26987;59.928;30.306;2023-05-08T02:59:56;102970.50;;;11.18;38.92
41254;BME280;26987;59.928;30.306;2023-05-08T03:02:31;102973.69;;;11.66;37.00
41254;BME280;26987;59.928;30.306;2023-05-08T03:05:15;102974.28;;;12.21;36.30
41254;BME280;26987;59.928;30.306;2023-05-08T03:07:45;102926.63;;;12.05;34.90
41254;BME280;26987;59.928;30.306;2023-05-08T03:10:14;102969.69;;;12.73;34.24
41254;BME280;26987;59.928;30.306;2023-05-08T03:12:45;102972.06;;;13.02;33.31
41254;BME280;26987;59.928;30.306;2023-05-08T03:15:20;102975.91;;;13.32;32.57
41254;BME280;26987;59.928;30.306;2023-05-08T03:17:53;102968.25;;;13.78;31.56
41254;BME280;26987;59.928;30.306;2023-05-08T03:20:26;102971.25;;;14.23;31.17
41254;BME280;26987;59.928;30.306;2023-05-08T03:22:58;102968.13;;;14.66;30.20
41254;BME280;26987;59.928;30.306;2023-05-08T03:25:27;102935.47;;;14.76;29.26
41254;BME280;26987;59.928;30.306;2023-05-08T03:27:57;102970.28;;;15.18;29.17
41254;BME280;26987;59.928;30.306;2023-05-08T03:30:26;102965.34;;;15.51;28.65
41254;BME280;26987;59.928;30.306;2023-05-08T03:33:03;102975.91;;;15.76;28.40
41254;BME280;26987;59.928;30.306;2023-05-08T03:35:35;102953.22;;;16.08;27.72
41254;BME280;26987;59.928;30.306;2023-05-08T03:38:04;102971.91;;;16.61;27.12
41254;BME280;26987;59.928;30.306;2023-05-08T03:40:34;102975.13;;;16.94;26.58
41254;BME280;26987;59.928;30.306;2023-05-08T03:43:05;102975.75;;;17.18;26.45
41254;BME280;26987;59.928;30.306;2023-05-08T03:45:34;102941.94;;;17.42;25.57
41254;BME280;26987;59.928;30.306;2023-05-08T03:48:04;102973.78;;;18.11;25.03
41254;BME280;26987;59.928;30.306;2023-05-08T03:50:36;102973.31;;;18.76;24.69
41254;BME280;26987;59.928;30.306;2023-05-08T03:53:06;102970.38;;;18.91;23.79
41254;BME280;26987;59.928;30.306;2023-05-08T03:55:35;102984.81;;;19.19;23.57
41254;BME280;26987;59.928;30.306;2023-05-08T03:58:14;102974.88;;;19.65;23.76
41254;BME280;26987;59.928;30.306;2023-05-08T04:00:53;102974.13;;;19.97;23.44
41254;BME280;26987;59.928;30.306;2023-05-08T04:03:36;102977.34;;;20.33;22.81
41254;BME280;26987;59.928;30.306;2023-05-08T04:06:12;102980.78;;;20.54;22.36
41254;BME280;26987;59.928;30.306;2023-05-08T04:08:47;102963.06;;;20.63;22.56
41254;BME280;26987;59.928;30.306;2023-05-08T04:11:20;102983.28;;;20.56;22.07
41254;BME280;26987;59.928;30.306;2023-05-08T04:13:57;102976.28;;;20.92;22.17
41254;BME280;26987;59.928;30.306;2023-05-08T04:16:32;102982.44;;;21.13;21.90
41254;BME280;26987;59.928;30.306;2023-05-08T04:19:10;102967.09;;;21.12;21.59
41254;BME280;26987;59.928;30.306;2023-05-08T04:21:43;102978.97;;;21.62;21.36
41254;BME280;26987;59.928;30.306;2023-05-08T04:24:13;102986.41;;;21.73;20.85
41254;BME280;26987;59.928;30.306;2023-05-08T04:26:45;102974.59;;;21.79;20.94
41254;BME280;26987;59.928;30.306;2023-05-08T04:29:16;102978.22;;;21.92;20.92
41254;BME280;26987;59.928;30.306;2023-05-08T04:31:44;102969.41;;;22.09;20.80
41254;BME280;26987;59.928;30.306;2023-05-08T04:34:13;102971.38;;;22.01;20.60
41254;BME280;26987;59.928;30.306;2023-05-08T04:36:44;102984.88;;;21.96;20.67
41254;BME280;26987;59.928;30.306;2023-05-08T04:39:14;102979.41;;;21.96;20.62
41254;BME280;26987;59.928;30.306;2023-05-08T04:41:42;102982.31;;;21.64;20.87
41254;BME280;26987;59.928;30.306;2023-05-08T04:44:11;102972.03;;;21.85;20.63
41254;BME280;26987;59.928;30.306;2023-05-08T04:46:39;102968.53;;;21.77;20.82
41254;BME280;26987;59.928;30.306;2023-05-08T04:49:07;102966.25;;;21.37;21.02
41254;BME280;26987;59.928;30.306;2023-05-08T04:51:35;102968.53;;;20.63;21.69
41254;BME280;26987;59.928;30.306;2023-05-08T04:54:05;102975.44;;;20.34;22.25
41254;BME280;26987;59.928;30.306;2023-05-08T04:56:33;102962.47;;;19.83;22.76
41254;BME280;26987;59.928;30.306;2023-05-08T04:59:03;102975.59;;;18.80;23.60
41254;BME280;26987;59.928;30.306;2023-05-08T05:01:31;102974.09;;;17.94;24.88
41254;BME280;26987;59.928;30.306;2023-05-08T05:04:00;102970.06;;;17.41;25.55
41254;BME280;26987;59.928;30.306;2023-05-08T05:06:28;102966.09;;;16.86;26.40
41254;BME280;26987;59.928;30.306;2023-05-08T05:08:56;102976.09;;;16.86;26.42
41254;BME280;26987;59.928;30.306;2023-05-08T05:11:25;102973.88;;;17.18;26.26
41254;BME280;26987;59.928;30.306;2023-05-08T05:13:53;102973.97;;;17.32;26.09
41254;BME280;26987;59.928;30.306;2023-05-08T05:16:22;102967.16;;;17.43;25.73
41254;BME280;26987;59.928;30.306;2023-05-08T05:18:50;102957.84;;;17.23;26.00
41254;BME280;26987;59.928;30.306;2023-05-08T05:21:19;102976.34;;;17.77;25.69
41254;BME280;26987;59.928;30.306;2023-05-08T05:23:47;102975.41;;;19.15;24.37
41254;BME280;26987;59.928;30.306;2023-05-08T05:26:15;102981.41;;;20.17;23.15
41254;BME280;26987;59.928;30.306;2023-05-08T05:28:44;102984.22;;;21.00;22.60
41254;BME280;26987;59.928;30.306;2023-05-08T05:31:13;102983.50;;;22.05;21.48
41254;BME280;26987;59.928;30.306;2023-05-08T05:33:41;102980.56;;;22.38;21.07
41254;BME280;26987;59.928;30.306;2023-05-08T05:36:09;102988.03;;;22.30;20.97
41254;BME280;26987;59.928;30.306;2023-05-08T05:38:37;102992.56;;;22.79;20.34
41254;BME280;26987;59.928;30.306;2023-05-08T05:41:05;102992.56;;;22.79;20.69
41254;BME280;26987;59.928;30.306;2023-05-08T05:43:33;102991.59;;;23.34;20.03
41254;BME280;26987;59.928;30.306;2023-05-08T05:46:06;102992.19;;;24.01;19.96
41254;BME280;26987;59.928;30.306;2023-05-08T05:48:35;103002.91;;;23.61;19.64
41254;BME280;26987;59.928;30.306;2023-05-08T05:51:03;103001.16;;;23.19;19.73
41254;BME280;26987;59.928;30.306;2023-05-08T05:53:31;102999.72;;;23.28;19.97
41254;BME280;26987;59.928;30.306;2023-05-08T05:55:59;103001.38;;;23.17;20.06
41254;BME280;26987;59.928;30.306;2023-05-08T05:58:28;102997.09;;;23.46;19.57
41254;BME280;26987;59.928;30.306;2023-05-08T06:00:57;103002.28;;;23.71;19.18
41254;BME280;26987;59.928;30.306;2023-05-08T06:03:27;103004.47;;;23.98;19.16
41254;BME280;26987;59.928;30.306;2023-05-08T06:05:55;103000.41;;;24.01;18.67
41254;BME280;26987;59.928;30.306;2023-05-08T06:08:26;102994.31;;;24.11;18.60
41254;BME280;26987;59.928;30.306;2023-05-08T06:10:55;102992.03;;;23.78;18.91
41254;BME280;26987;59.928;30.306;2023-05-08T06:13:24;102993.31;;;23.88;18.84
41254;BME280;26987;59.928;30.306;2023-05-08T06:15:53;102994.22;;;23.64;18.75
41254;BME280;26987;59.928;30.306;2023-05-08T06:18:23;102960.06;;;23.55;18.47
41254;BME280;26987;59.928;30.306;2023-05-08T06:20:56;102991.28;;;23.54;18.68
41254;BME280;26987;59.928;30.306;2023-05-08T06:23:24;102966.16;;;22.85;18.91
41254;BME280;26987;59.928;30.306;2023-05-08T06:25:52;102982.22;;;22.93;18.67
41254;BME280;26987;59.928;30.306;2023-05-08T06:28:20;102988.66;;;23.11;18.86
41254;BME280;26987;59.928;30.306;2023-05-08T06:30:49;102984.38;;;23.03;18.37
41254;BME280;26987;59.928;30.306;2023-05-08T06:33:18;102988.50;;;23.06;18.45
41254;BME280;26987;59.928;30.306;2023-05-08T06:35:46;102975.19;;;22.86;18.41
41254;BME280;26987;59.928;30.306;2023-05-08T06:38:15;102991.94;;;22.77;18.65
41254;BME280;26987;59.928;30.306;2023-05-08T06:40:44;102982.75;;;22.60;18.58
41254;BME280;26987;59.928;30.306;2023-05-08T06:43:13;102989.75;;;22.55;18.46
41254;BME280;26987;59.928;30.306;2023-05-08T06:45:42;102979.97;;;22.17;19.17
41254;BME280;26987;59.928;30.306;2023-05-08T06:48:10;102984.72;;;22.10;18.98
41254;BME280;26987;59.928;30.306;2023-05-08T06:50:37;102984.94;;;21.77;19.25
41254;BME280;26987;59.928;30.306;2023-05-08T06:53:06;102975.59;;;21.22;19.74
41254;BME280;26987;59.928;30.306;2023-05-08T06:55:35;102988.69;;;20.88;20.10
41254;BME280;26987;59.928;30.306;2023-05-08T06:58:03;102985.66;;;19.99;20.89
41254;BME280;26987;59.928;30.306;2023-05-08T07:00:31;102989.56;;;19.51;21.47
41254;BME280;26987;59.928;30.306;2023-05-08T07:02:59;102992.97;;;18.99;21.77
41254;BME280;26987;59.928;30.306;2023-05-08T07:05:26;102981.78;;;18.33;22.62
41254;BME280;26987;59.928;30.306;2023-05-08T07:07:54;102973.47;;;17.92;22.98
41254;BME280;26987;59.928;30.306;2023-05-08T07:10:22;102981.31;;;17.73;23.17
41254;BME280;26987;59.928;30.306;2023-05-08T07:12:51;102972.25;;;17.24;23.14
41254;BME280;26987;59.928;30.306;2023-05-08T07:15:19;102984.13;;;17.01;23.50
41254;BME280;26987;59.928;30.306;2023-05-08T07:17:47;102977.63;;;16.73;23.89
41254;BME280;26987;59.928;30.306;2023-05-08T07:20:16;102948.38;;;16.03;24.61
41254;BME280;26987;59.928;30.306;2023-05-08T07:22:45;102976.28;;;15.73;25.63
41254;BME280;26987;59.928;30.306;2023-05-08T07:25:13;102975.78;;;15.55;25.74
41254;BME280;26987;59.928;30.306;2023-05-08T07:27:41;102984.16;;;15.30;26.19
41254;BME280;26987;59.928;30.306;2023-05-08T07:30:11;102984.78;;;15.17;26.25
41254;BME280;26987;59.928;30.306;2023-05-08T07:32:39;102981.75;;;15.35;26.23
41254;BME280;26987;59.928;30.306;2023-05-08T07:35:07;102976.00;;;14.99;26.45
41254;BME280;26987;59.928;30.306;2023-05-08T07:37:37;102944.91;;;14.57;27.10
41254;BME280;26987;59.928;30.306;2023-05-08T07:40:06;102972.81;;;14.72;27.66
41254;BME280;26987;59.928;30.306;2023-05-08T07:42:38;102978.31;;;14.56;27.93
41254;BME280;26987;59.928;30.306;2023-05-08T07:45:07;102978.84;;;14.19;28.46
41254;BME280;26987;59.928;30.306;2023-05-08T07:47:37;102982.03;;;13.91;29.36
41254;BME280;26987;59.928;30.306;2023-05-08T07:50:06;102982.44;;;13.63;30.11
41254;BME280;26987;59.928;30.306;2023-05-08T07:52:33;102974.38;;;13.46;30.71
41254;BME280;26987;59.928;30.306;2023-05-08T07:55:01;102982.81;;;13.43;30.94
41254;BME280;26987;59.928;30.306;2023-05-08T07:57:35;102971.69;;;13.46;30.97
41254;BME280;26987;59.928;30.306;2023-05-08T08:00:04;102980.97;;;13.35;30.98
41254;BME280;26987;59.928;30.306;2023-05-08T08:02:41;102985.19;;;13.30;31.05
41254;BME280;26987;59.928;30.306;2023-05-08T08:05:09;102975.91;;;13.24;31.57
41254;BME280;26987;59.928;30.306;2023-05-08T08:07:37;102984.84;;;13.33;31.23
41254;BME280;26987;59.928;30.306;2023-05-08T08:10:06;102987.38;;;13.18;31.45
41254;BME280;26987;59.928;30.306;2023-05-08T08:12:34;102982.81;;;13.02;30.90
41254;BME280;26987;59.928;30.306;2023-05-08T08:15:02;102985.16;;;12.88;31.18
41254;BME280;26987;59.928;30.306;2023-05-08T08:17:30;102990.22;;;12.74;31.73
41254;BME280;26987;59.928;30.306;2023-05-08T08:19:59;102989.84;;;12.61;31.78
41254;BME280;26987;59.928;30.306;2023-05-08T08:22:28;102985.50;;;12.60;30.91
41254;BME280;26987;59.928;30.306;2023-05-08T08:24:56;102988.19;;;12.60;30.36
41254;BME280;26987;59.928;30.306;2023-05-08T08:27:23;102985.66;;;12.67;29.33
41254;BME280;26987;59.928;30.306;2023-05-08T08:29:51;102953.31;;;12.50;28.79
41254;BME280;26987;59.928;30.306;2023-05-08T08:32:19;102991.22;;;12.82;28.72
41254;BME280;26987;59.928;30.306;2023-05-08T08:34:47;102990.22;;;12.83;28.66
41254;BME280;26987;59.928;30.306;2023-05-08T08:37:16;102989.72;;;12.71;28.55
41254;BME280;26987;59.928;30.306;2023-05-08T08:39:44;102988.19;;;12.60;28.46
41254;BME280;26987;59.928;30.306;2023-05-08T08:42:13;102993.41;;;12.61;28.19
41254;BME280;26987;59.928;30.306;2023-05-08T08:44:41;102999.28;;;12.65;27.60
41254;BME280;26987;59.928;30.306;2023-05-08T08:47:09;102982.97;;;12.58;26.41
41254;BME280;26987;59.928;30.306;2023-05-08T08:49:42;102989.53;;;12.56;26.54
41254;BME280;26987;59.928;30.306;2023-05-08T08:52:21;102989.00;;;12.52;26.95
41254;BME280;26987;59.928;30.306;2023-05-08T08:54:54;102993.03;;;12.56;27.35
41254;BME280;26987;59.928;30.306;2023-05-08T08:57:23;102983.13;;;12.48;27.26
41254;BME280;26987;59.928;30.306;2023-05-08T08:59:54;102980.06;;;12.43;27.76
41254;BME280;26987;59.928;30.306;2023-05-08T09:02:22;102978.34;;;12.34;27.89
41254;BME280;26987;59.928;30.306;2023-05-08T09:04:51;102975.34;;;12.37;28.33
41254;BME280;26987;59.928;30.306;2023-05-08T09:07:21;102973.00;;;12.42;28.31
41254;BME280;26987;59.928;30.306;2023-05-08T09:09:51;102974.84;;;12.33;28.74
41254;BME280;26987;59.928;30.306;2023-05-08T09:12:19;102956.78;;;12.09;28.79
41254;BME280;26987;59.928;30.306;2023-05-08T09:14:47;102975.28;;;12.20;29.24
41254;BME280;26987;59.928;30.306;2023-05-08T09:17:15;102978.47;;;12.16;29.27
41254;BME280;26987;59.928;30.306;2023-05-08T09:19:43;102970.75;;;12.21;29.39
41254;BME280;26987;59.928;30.306;2023-05-08T09:22:12;102966.91;;;12.23;29.83
41254;BME280;26987;59.928;30.306;2023-05-08T09:24:58;102970.47;;;12.41;29.62
41254;BME280;26987;59.928;30.306;2023-05-08T09:27:27;102980.03;;;12.35;30.00
41254;BME280;26987;59.928;30.306;2023-05-08T09:30:00;102966.94;;;12.32;29.96
41254;BME280;26987;59.928;30.306;2023-05-08T09:32:29;102970.28;;;12.34;30.21
41254;BME280;26987;59.928;30.306;2023-05-08T09:34:58;102897.16;;;11.87;30.10
41254;BME280;26987;59.928;30.306;2023-05-08T09:37:27;102925.38;;;12.18;30.25
41254;BME280;26987;59.928;30.306;2023-05-08T09:40:11;102978.59;;;12.66;30.00
41254;BME280;26987;59.928;30.306;2023-05-08T09:42:40;102967.31;;;12.54;29.91
41254;BME280;26987;59.928;30.306;2023-05-08T09:45:09;102972.31;;;12.40;30.56
41254;BME280;26987;59.928;30.306;2023-05-08T09:47:37;102961.19;;;12.35;30.99
41254;BME280;26987;59.928;30.306;2023-05-08T09:50:07;102960.53;;;12.33;31.00
41254;BME280;26987;59.928;30.306;2023-05-08T09:52:37;102964.56;;;12.37;31.55
41254;BME280;26987;59.928;30.306;2023-05-08T09:55:09;102961.88;;;12.29;31.45
41254;BME280;26987;59.928;30.306;2023-05-08T09:57:38;102950.75;;;12.15;31.77
41254;BME280;26987;59.928;30.306;2023-05-08T10:00:08;102956.19;;;12.32;31.21
41254;BME280;26987;59.928;30.306;2023-05-08T10:02:40;102958.50;;;12.35;31.71
41254;BME280;26987;59.928;30.306;2023-05-08T10:05:30;102960.25;;;12.61;31.68
41254;BME280;26987;59.928;30.306;2023-05-08T10:08:17;102945.91;;;12.35;31.83
41254;BME280;26987;59.928;30.306;2023-05-08T10:10:47;102952.47;;;12.33;31.55
41254;BME280;26987;59.928;30.306;2023-05-08T10:13:15;102947.09;;;12.33;31.58
41254;BME280;26987;59.928;30.306;2023-05-08T10:15:43;102939.34;;;12.38;31.75
41254;BME280;26987;59.928;30.306;2023-05-08T10:18:12;102935.31;;;12.34;31.51
41254;BME280;26987;59.928;30.306;2023-05-08T10:20:42;102866.25;;;11.83;31.67
41254;BME280;26987;59.928;30.306;2023-05-08T10:23:15;102918.47;;;12.15;31.55
41254;BME280;26987;59.928;30.306;2023-05-08T10:25:45;102920.16;;;12.16;31.36
41254;BME280;26987;59.928;30.306;2023-05-08T10:28:21;102932.63;;;12.34;31.68
41254;BME280;26987;59.928;30.306;2023-05-08T10:30:51;102925.25;;;12.36;31.60
41254;BME280;26987;59.928;30.306;2023-05-08T10:33:24;102914.81;;;12.33;31.75
41254;BME280;26987;59.928;30.306;2023-05-08T10:35:56;102926.06;;;12.36;31.74
41254;BME280;26987;59.928;30.306;2023-05-08T10:38:24;102909.56;;;12.23;31.85
41254;BME280;26987;59.928;30.306;2023-05-08T10:40:53;102878.97;;;12.07;31.82
41254;BME280;26987;59.928;30.306;2023-05-08T10:43:25;102922.88;;;12.41;31.28
41254;BME280;26987;59.928;30.306;2023-05-08T10:45:56;102915.50;;;12.43;30.32
41254;BME280;26987;59.928;30.306;2023-05-08T10:48:27;102920.22;;;12.58;30.03
41254;BME280;26987;59.928;30.306;2023-05-08T10:51:04;102919.38;;;12.57;30.23
41254;BME280;26987;59.928;30.306;2023-05-08T10:53:37;102916.69;;;12.57;30.03
41254;BME280;26987;59.928;30.306;2023-05-08T10:56:06;102883.88;;;12.37;29.86
41254;BME280;26987;59.928;30.306;2023-05-08T10:58:37;102889.78;;;12.41;29.96
41254;BME280;26987;59.928;30.306;2023-05-08T11:01:15;102888.75;;;12.50;30.54
41254;BME280;26987;59.928;30.306;2023-05-08T11:03:45;102900.88;;;12.46;30.52
41254;BME280;26987;59.928;30.306;2023-05-08T11:06:13;102897.00;;;12.40;30.82
41254;BME280;26987;59.928;30.306;2023-05-08T11:08:47;102881.19;;;12.37;30.83
41254;BME280;26987;59.928;30.306;2023-05-08T11:11:27;102881.72;;;12.41;30.38
41254;BME280;26987;59.928;30.306;2023-05-08T11:14:09;102899.19;;;12.53;30.60
41254;BME280;26987;59.928;30.306;2023-05-08T11:17:05;102892.97;;;12.61;30.65
41254;BME280;26987;59.928;30.306;2023-05-08T11:19:34;102892.97;;;12.53;30.39
41254;BME280;26987;59.928;30.306;2023-05-08T11:22:20;102887.94;;;12.49;30.46
41254;BME280;26987;59.928;30.306;2023-05-08T11:24:53;102865.03;;;12.20;30.75
41254;BME280;26987;59.928;30.306;2023-05-08T11:27:31;102893.97;;;12.43;30.80
41254;BME280;26987;59.928;30.306;2023-05-08T11:30:21;102889.13;;;12.47;30.83
41254;BME280;26987;59.928;30.306;2023-05-08T11:33:12;102887.91;;;12.33;30.99
41254;BME280;26987;59.928;30.306;2023-05-08T11:35:52;102883.56;;;12.32;30.70
41254;BME280;26987;59.928;30.306;2023-05-08T11:38:22;102879.66;;;12.26;31.16
41254;BME280;26987;59.928;30.306;2023-05-08T11:40:58;102882.53;;;12.33;30.85
41254;BME280;26987;59.928;30.306;2023-05-08T11:43:34;102877.16;;;12.33;30.58
41254;BME280;26987;59.928;30.306;2023-05-08T11:46:15;102871.09;;;12.39;30.59
41254;BME280;26987;59.928;30.306;2023-05-08T11:48:44;102879.84;;;12.49;30.63
41254;BME280;26987;59.928;30.306;2023-05-08T11:51:12;102880.69;;;12.58;30.79
41254;BME280;26987;59.928;30.306;2023-05-08T11:53:40;102880.88;;;12.57;30.18
41254;BME280;26987;59.928;30.306;2023-05-08T11:56:09;102881.56;;;12.59;30.44
41254;BME280;26987;59.928;30.306;2023-05-08T11:58:37;102839.81;;;12.30;30.59
41254;BME280;26987;59.928;30.306;2023-05-08T12:01:05;102882.56;;;12.66;30.29
41254;BME280;26987;59.928;30.306;2023-05-08T12:03:34;102862.03;;;12.57;30.28
41254;BME280;26987;59.928;30.306;2023-05-08T12:06:03;102863.88;;;12.56;30.59
41254;BME280;26987;59.928;30.306;2023-05-08T12:08:31;102863.56;;;12.68;30.75
41254;BME280;26987;59.928;30.306;2023-05-08T12:10:59;102864.22;;;12.61;30.86
41254;BME280;26987;59.928;30.306;2023-05-08T12:13:28;102867.94;;;12.60;31.20
41254;BME280;26987;59.928;30.306;2023-05-08T12:15:57;102868.75;;;12.61;30.62
41254;BME280;26987;59.928;30.306;2023-05-08T12:18:26;102865.72;;;12.64;30.75
41254;BME280;26987;59.928;30.306;2023-05-08T12:20:59;102853.44;;;12.53;30.89
41254;BME280;26987;59.928;30.306;2023-05-08T12:23:28;102849.41;;;12.49;31.03
41254;BME280;26987;59.928;30.306;2023-05-08T12:25:57;102819.31;;;12.37;31.17
41254;BME280;26987;59.928;30.306;2023-05-08T12:28:26;102862.03;;;12.57;31.21
41254;BME280;26987;59.928;30.306;2023-05-08T12:30:54;102861.38;;;12.63;31.07
41254;BME280;26987;59.928;30.306;2023-05-08T12:33:22;102857.34;;;12.59;31.02
41254;BME280;26987;59.928;30.306;2023-05-08T12:35:51;102853.97;;;12.57;31.15
41254;BME280;26987;59.928;30.306;2023-05-08T12:38:24;102843.19;;;12.65;31.25
41254;BME280;26987;59.928;30.306;2023-05-08T12:40:53;102836.13;;;12.56;30.88
41254;BME280;26987;59.928;30.306;2023-05-08T12:43:30;102792.94;;;12.24;30.67
41254;BME280;26987;59.928;30.306;2023-05-08T12:45:59;102842.84;;;12.35;30.99
41254;BME280;26987;59.928;30.306;2023-05-08T12:48:27;102822.34;;;12.26;30.70
41254;BME280;26987;59.928;30.306;2023-05-08T12:51:00;102831.75;;;12.38;30.59
41254;BME280;26987;59.928;30.306;2023-05-08T12:53:31;102823.84;;;12.36;30.94
41254;BME280;26987;59.928;30.306;2023-05-08T12:56:01;102820.34;;;12.36;30.71
41254;BME280;26987;59.928;30.306;2023-05-08T12:58:30;102829.25;;;12.45;30.31
41254;BME280;26987;59.928;30.306;2023-05-08T13:01:06;102830.41;;;12.51;30.15
41254;BME280;26987;59.928;30.306;2023-05-08T13:03:35;102803.19;;;12.29;30.71
41254;BME280;26987;59.928;30.306;2023-05-08T13:06:04;102816.47;;;12.39;30.37
41254;BME280;26987;59.928;30.306;2023-05-08T13:08:34;102822.03;;;12.45;30.72